createdAt,value
2023-05-17T00:02:24.215Z,10.07
2023-05-17T00:08:44.158Z,9.89
2023-05-17T00:15:07.266Z,9.77
2023-05-17T00:21:27.178Z,9.69
2023-05-17T00:27:50.209Z,9.62
2023-05-17T00:34:10.292Z,9.53
2023-05-17T00:40:33.204Z,9.42
2023-05-17T00:46:53.161Z,9.35
2023-05-17T00:53:16.640Z,9.26
2023-05-17T00:59:36.168Z,9.17
2023-05-17T01:05:59.224Z,9.12
2023-05-17T01:12:19.358Z,9.03
2023-05-17T01:18:42.458Z,8.89
2023-05-17T01:25:02.237Z,8.74
2023-05-17T01:31:25.383Z,8.57
2023-05-17T01:37:45.204Z,8.4
2023-05-17T01:44:08.218Z,8.33
2023-05-17T01:50:28.227Z,8.24
2023-05-17T01:56:51.223Z,8.12
2023-05-17T02:03:11.213Z,8.06
2023-05-17T02:09:34.330Z,8.05
2023-05-17T02:15:54.238Z,8.07
2023-05-17T02:22:17.172Z,8.07
2023-05-17T02:28:37.299Z,7.98
2023-05-17T02:35:00.216Z,7.93
2023-05-17T02:41:20.169Z,7.93
2023-05-17T02:47:43.520Z,7.84
2023-05-17T02:54:03.190Z,7.75
2023-05-17T03:00:26.303Z,7.75
2023-05-17T03:06:46.289Z,7.77
2023-05-17T03:29:52.275Z,7.64
2023-05-17T03:36:15.172Z,7.58
2023-05-17T03:42:35.177Z,7.41
2023-05-17T03:48:59.485Z,7.35
2023-05-17T03:55:19.211Z,7.31
2023-05-17T04:01:42.168Z,7.24
2023-05-17T04:08:02.330Z,7.21
2023-05-17T04:14:25.197Z,7.26
2023-05-17T04:20:45.249Z,7.31
2023-05-17T04:27:08.336Z,7.42
2023-05-17T04:33:28.293Z,7.49
2023-05-17T04:39:51.258Z,7.69
2023-05-17T04:46:11.401Z,7.89
2023-05-17T04:52:34.165Z,8.06
2023-05-17T04:58:54.393Z,8.17
2023-05-17T05:05:17.275Z,8.3
2023-05-17T05:11:37.212Z,8.41
2023-05-17T05:18:00.221Z,8.49
2023-05-17T05:24:20.278Z,8.64
2023-05-17T05:30:43.311Z,8.77
2023-05-17T05:37:03.163Z,8.98
2023-05-17T05:43:26.316Z,9.14
2023-05-17T05:49:46.175Z,9.06
2023-05-17T05:56:09.205Z,9.05
2023-05-17T06:02:29.368Z,9.19
2023-05-17T06:08:52.223Z,9.31
2023-05-17T06:15:12.221Z,9.36
2023-05-17T06:21:35.345Z,9.44
2023-05-17T06:27:55.191Z,9.54
2023-05-17T06:34:18.299Z,9.64
2023-05-17T06:40:38.298Z,9.7
2023-05-17T06:47:01.225Z,9.89
2023-05-17T06:53:21.246Z,10.22
2023-05-17T06:59:44.386Z,10.43
2023-05-17T07:06:04.182Z,10.38
2023-05-17T07:12:27.175Z,10.48
2023-05-17T07:18:47.290Z,10.67
2023-05-17T07:25:10.168Z,10.87
2023-05-17T07:31:30.169Z,10.81
2023-05-17T07:37:53.275Z,10.91
2023-05-17T07:44:13.192Z,10.99
2023-05-17T07:50:36.345Z,11.02
2023-05-17T07:56:57.231Z,11.16
2023-05-17T08:03:20.215Z,11.3
2023-05-17T08:09:40.214Z,11.53
2023-05-17T08:16:12.525Z,11.9
2023-05-17T08:22:23.208Z,12.41
2023-05-17T08:45:11.222Z,13.41
2023-05-17T08:51:34.179Z,13.75
2023-05-17T08:57:54.191Z,14.25
2023-05-17T09:04:17.250Z,14.28
2023-05-17T09:10:37.168Z,14.13
2023-05-17T09:17:00.222Z,13.86
2023-05-17T09:23:20.330Z,13.81
2023-05-17T09:29:43.224Z,13.75
2023-05-17T09:36:03.219Z,14.2
2023-05-17T09:42:26.187Z,14.95
2023-05-17T09:48:46.201Z,15.47
2023-05-17T09:55:09.166Z,16.09
2023-05-17T10:01:29.223Z,16.63
2023-05-17T10:07:52.165Z,16.4
2023-05-17T10:14:12.233Z,15.37
2023-05-17T10:20:35.301Z,14.93
2023-05-17T10:26:55.157Z,14.95
2023-05-17T10:33:18.280Z,15.38
2023-05-17T10:39:38.193Z,16.1
2023-05-17T10:46:01.179Z,16.86
2023-05-17T10:52:21.220Z,17.28
2023-05-17T10:58:44.235Z,16.98
2023-05-17T11:05:04.215Z,16.58
2023-05-17T11:11:27.200Z,16.75
2023-05-17T11:17:47.227Z,17.25
2023-05-17T11:24:10.216Z,17.46
2023-05-17T11:30:30.328Z,17.23
2023-05-17T11:36:53.219Z,16.6
2023-05-17T11:43:13.175Z,16.49
2023-05-17T11:49:37.012Z,16.73
2023-05-17T11:55:56.196Z,17.02
2023-05-17T12:02:19.162Z,17.33
2023-05-17T12:08:39.209Z,17.51
2023-05-17T12:15:02.218Z,17.14
2023-05-17T12:21:22.176Z,17.85
2023-05-17T12:27:45.164Z,17.95
2023-05-17T12:34:05.277Z,18.33
2023-05-17T12:40:28.348Z,18.6
2023-05-17T12:46:48.141Z,18.17
2023-05-17T12:53:11.226Z,18.68
2023-05-17T12:59:31.189Z,19.27
2023-05-17T13:05:54.164Z,19.42
2023-05-17T13:12:14.211Z,19.85
2023-05-17T13:18:37.271Z,19.26
2023-05-17T13:24:57.189Z,19.52
2023-05-17T13:31:20.180Z,19.38
2023-05-17T13:37:40.155Z,19.03
2023-05-17T13:44:03.183Z,19.54
2023-05-17T13:50:23.184Z,18.8
2023-05-17T13:56:46.187Z,18.3
2023-05-17T14:19:51.818Z,19.36
2023-05-17T14:26:11.180Z,19.99
2023-05-17T14:32:34.180Z,19.8
2023-05-17T14:38:54.186Z,19.19
2023-05-17T14:45:17.175Z,18.98
2023-05-17T14:51:37.208Z,19.41
2023-05-17T14:58:00.194Z,19.55
2023-05-17T15:04:20.311Z,19.39
2023-05-17T15:10:43.154Z,19.1
2023-05-17T15:17:03.191Z,19.32
2023-05-17T15:23:26.181Z,19.39
2023-05-17T15:29:46.152Z,19.33
2023-05-17T15:36:10.681Z,19.7
2023-05-17T15:42:29.158Z,19.08
2023-05-17T15:48:52.203Z,18.28
2023-05-17T15:55:12.217Z,18.11
2023-05-17T16:01:35.175Z,18.66
2023-05-17T16:07:55.187Z,19.53
2023-05-17T16:14:18.181Z,19.45
2023-05-17T16:20:38.170Z,18.87
2023-05-17T16:27:01.188Z,18.56
2023-05-17T16:33:21.242Z,18.51
2023-05-17T16:39:44.203Z,18.3
2023-05-17T16:46:04.160Z,18.98
2023-05-17T16:52:27.233Z,19.53
2023-05-17T16:58:49.438Z,20.03
2023-05-17T17:05:12.489Z,20.03
2023-05-17T17:11:32.291Z,19.22
2023-05-17T17:17:55.169Z,19.09
2023-05-17T17:24:15.305Z,18.99
2023-05-17T17:30:38.248Z,19.07
2023-05-17T17:36:58.156Z,19.03
2023-05-17T17:43:21.349Z,19.01
2023-05-17T17:49:41.203Z,18.56
2023-05-17T17:56:04.208Z,17.92
2023-05-17T18:02:24.269Z,17.27
2023-05-17T18:08:47.211Z,16.65
2023-05-17T18:15:07.207Z,16.22
2023-05-17T18:21:30.161Z,15.95
2023-05-17T18:27:50.239Z,15.71
2023-05-17T18:34:13.168Z,15.42
2023-05-17T18:40:33.173Z,15.2
2023-05-17T18:46:56.302Z,15.01
2023-05-17T18:53:16.174Z,14.81
2023-05-17T18:59:39.167Z,14.59
2023-05-17T19:05:59.214Z,14.36
2023-05-17T19:12:22.227Z,14.19
2023-05-17T19:18:42.304Z,14.04
2023-05-17T19:25:05.224Z,13.82
2023-05-17T19:49:04.166Z,13.13
2023-05-17T19:55:24.202Z,12.93
2023-05-17T20:01:47.241Z,12.75
2023-05-17T20:08:07.498Z,12.61
2023-05-17T20:14:30.173Z,12.45
2023-05-17T20:20:50.168Z,12.28
2023-05-17T20:27:13.207Z,12.14
2023-05-17T20:33:33.199Z,12.07
2023-05-17T20:39:56.198Z,11.96
2023-05-17T20:46:16.227Z,11.84
2023-05-17T20:52:39.885Z,11.69
2023-05-17T20:58:59.235Z,11.6
2023-05-17T21:05:22.256Z,11.49
2023-05-17T21:11:42.174Z,11.4
2023-05-17T21:18:05.224Z,11.29
2023-05-17T21:24:25.196Z,11.2
2023-05-17T21:30:48.189Z,11.09
2023-05-17T21:37:08.224Z,10.97
2023-05-17T21:43:31.198Z,10.87
2023-05-17T21:49:51.182Z,10.71
2023-05-17T21:56:14.208Z,10.53
2023-05-17T22:20:29.606Z,9.82
2023-05-17T22:26:49.155Z,9.77
2023-05-17T22:33:12.258Z,9.69
2023-05-17T22:39:32.270Z,9.58
2023-05-17T22:45:55.196Z,9.49
2023-05-17T22:52:15.191Z,9.35
2023-05-17T22:58:38.286Z,9.19
2023-05-17T23:04:58.155Z,9.1
2023-05-17T23:11:21.213Z,9.04
2023-05-17T23:17:41.269Z,8.99
2023-05-17T23:24:04.254Z,8.84
2023-05-17T23:30:24.237Z,8.77
2023-05-17T23:36:47.455Z,8.68
2023-05-17T23:43:07.186Z,8.6
2023-05-17T23:49:30.246Z,8.36
2023-05-17T23:55:50.257Z,8.27
